Jeanerette, Louisiana
Current Conditions -  °F | °C
As of 1:53 AM on Friday 24 Oct 2014 (Local Time) from KARA Reporting Station
Clear Clear  
Wind Chill: 12°   Ceiling: Unl
Heat Index: 12°   Visibility: 10mi
Dew Point: 10°   Wind: 6mph
Humidity: 89%   Direction: 360°N
Pressure: 30.1"   Gusts: NA
Location:  29.91°N, 91.66°W
Report Text: KARA 240653Z AUTO 36005KT 10SM CLR 12/10 A3010 RMK AO2 SLP193 T01170100
Loading
Personal Weather Stations






























Interactive Weather Map
Tropical Storm Tracking
New forecast layout! Learn more

10-Day Weather Forecast

Advertisements
Track Severe Weather on mobile